createdAt,value
2022-09-30T00:01:11.708Z,99672.55
2022-09-30T00:03:17.161Z,99677.05
2022-09-30T00:05:22.517Z,99683.92
2022-09-30T00:07:27.939Z,99679.27
2022-09-30T00:09:33.588Z,99677.78
2022-09-30T00:11:41.921Z,99673.25
2022-09-30T00:13:50.609Z,99671.53
2022-09-30T00:15:55.997Z,99668.31
2022-09-30T00:18:01.246Z,99671.05
2022-09-30T00:20:06.399Z,99666.77
2022-09-30T00:22:11.716Z,99668.2
2022-09-30T00:24:16.986Z,99672.82
2022-09-30T00:26:22.288Z,99671.69
2022-09-30T00:28:27.383Z,99669.12
2022-09-30T00:30:32.890Z,99671.17
2022-09-30T00:32:37.917Z,99669.78
2022-09-30T00:34:43.153Z,99669.67
2022-09-30T00:36:48.219Z,99673.97
2022-09-30T00:38:55.406Z,99671.17
2022-09-30T00:41:00.750Z,99666.77
2022-09-30T00:43:05.984Z,99669.88
2022-09-30T00:45:11.160Z,99673.31
2022-09-30T00:47:16.393Z,99675.84
2022-09-30T00:49:21.708Z,99678.02
2022-09-30T00:51:27.120Z,99677.48
2022-09-30T00:53:32.516Z,99675.77
2022-09-30T00:55:37.847Z,99683.84
2022-09-30T00:57:43.231Z,99684.58
2022-09-30T00:59:48.500Z,99684.83
2022-09-30T01:01:53.795Z,99683.04
2022-09-30T01:03:59.424Z,99679.57
2022-09-30T01:06:05.137Z,99678.18
2022-09-30T01:08:10.609Z,99679.83
2022-09-30T01:10:16.066Z,99675.45
2022-09-30T01:12:21.301Z,99676.31
2022-09-30T01:14:26.329Z,99681.55
2022-09-30T01:16:31.789Z,99681.56
2022-09-30T01:18:37.635Z,99685.23
2022-09-30T01:20:43.000Z,99687.85
2022-09-30T01:22:47.916Z,99684.53
2022-09-30T01:24:53.095Z,99688.52
2022-09-30T01:26:58.376Z,99688.97
2022-09-30T01:29:04.453Z,99696.97
2022-09-30T01:31:10.948Z,99693.7
2022-09-30T01:33:16.545Z,99700.41
2022-09-30T01:35:22.027Z,99706.13
2022-09-30T01:37:27.182Z,99704.16
2022-09-30T01:39:32.291Z,99703.07
2022-09-30T01:41:38.379Z,99696.04
2022-09-30T01:43:43.552Z,99683.49
2022-09-30T01:45:49.625Z,99686.36
2022-09-30T01:47:55.069Z,99686.63
2022-09-30T01:50:00.693Z,99689.86
2022-09-30T01:52:05.717Z,99692.75
2022-09-30T01:54:11.231Z,99693.66
2022-09-30T01:56:16.567Z,99695.5
2022-09-30T01:58:22.247Z,99700.25
2022-09-30T02:00:27.748Z,99703.64
2022-09-30T02:02:33.685Z,99702.94
2022-09-30T02:04:38.828Z,99710.17
2022-09-30T02:06:43.976Z,99713.08
2022-09-30T02:08:49.468Z,99713.28
2022-09-30T02:10:55.605Z,99711.13
2022-09-30T02:13:01.084Z,99712.14
2022-09-30T02:15:06.118Z,99721.09
2022-09-30T02:17:11.584Z,99728.28
2022-09-30T02:19:17.285Z,99730.57
2022-09-30T02:21:22.794Z,99731.11
2022-09-30T02:23:28.462Z,99728.14
2022-09-30T02:25:33.953Z,99731.9
2022-09-30T02:27:39.323Z,99732.15
2022-09-30T02:29:44.629Z,99735.25
2022-09-30T02:31:50.583Z,99737.96
2022-09-30T02:33:56.275Z,99743.02
2022-09-30T02:36:08.183Z,99746
2022-09-30T02:38:14.004Z,99747.64
2022-09-30T02:40:19.255Z,99746.53
2022-09-30T02:42:24.355Z,99743.75
2022-09-30T02:44:29.313Z,99745.8
2022-09-30T02:46:34.919Z,99735.66
2022-09-30T02:48:40.316Z,99739.38
2022-09-30T02:50:45.343Z,99739.62
2022-09-30T02:52:50.737Z,99740.76
2022-09-30T02:54:56.171Z,99748.19
2022-09-30T02:57:01.335Z,99752.34
2022-09-30T02:59:06.698Z,99756.59
2022-09-30T03:01:12.174Z,99752.22
2022-09-30T03:03:17.755Z,99733.77
2022-09-30T03:05:22.943Z,99734.74
2022-09-30T03:07:28.456Z,99736.46
2022-09-30T03:09:33.828Z,99737.27
2022-09-30T03:11:39.567Z,99736.66
2022-09-30T03:13:44.938Z,99745.91
2022-09-30T03:15:52.175Z,99748.72
2022-09-30T03:17:57.774Z,99750.72
2022-09-30T03:20:05.902Z,99750.84
2022-09-30T03:22:11.342Z,99758.2
2022-09-30T03:24:16.743Z,99758.89
2022-09-30T03:26:22.030Z,99759.66
2022-09-30T03:28:27.460Z,99760.59
2022-09-30T03:30:33.217Z,99766.42
2022-09-30T03:32:39.576Z,99763.66
2022-09-30T03:34:45.316Z,99762.44
2022-09-30T03:36:51.007Z,99762.61
2022-09-30T03:38:56.686Z,99760.57
2022-09-30T03:41:02.045Z,99766.2
2022-09-30T03:43:07.325Z,99761.48
2022-09-30T03:45:13.026Z,99761.67
2022-09-30T03:47:21.933Z,99761.31
2022-09-30T03:49:28.050Z,99760.22
2022-09-30T03:51:33.580Z,99761.61
2022-09-30T03:53:39.235Z,99765.09
2022-09-30T03:55:44.468Z,99770.15
2022-09-30T03:57:49.922Z,99776.88
2022-09-30T03:59:55.732Z,99781.98
2022-09-30T04:02:01.382Z,99788.65
2022-09-30T04:04:07.144Z,99793.02
2022-09-30T04:06:12.818Z,99795.31
2022-09-30T04:08:18.287Z,99793.92
2022-09-30T04:10:24.106Z,99791.77
2022-09-30T04:12:29.752Z,99790.09
2022-09-30T04:14:35.074Z,99795.37
2022-09-30T04:16:41.064Z,99798.84
2022-09-30T04:18:46.458Z,99800.48
2022-09-30T04:20:52.600Z,99800.23
2022-09-30T04:22:58.417Z,99800.23
2022-09-30T04:25:03.990Z,99799.73
2022-09-30T04:27:09.069Z,99807.84
2022-09-30T04:29:15.111Z,99809.4
2022-09-30T04:31:21.398Z,99814.64
2022-09-30T04:33:27.593Z,99819.02
2022-09-30T04:35:33.118Z,99826.41
2022-09-30T04:37:38.935Z,99832
2022-09-30T04:39:44.685Z,99828.58
2022-09-30T04:41:50.868Z,99836.43
2022-09-30T04:43:56.915Z,99834.19
2022-09-30T04:46:03.093Z,99834.25
2022-09-30T04:48:08.930Z,99833.26
2022-09-30T04:50:14.401Z,99839.63
2022-09-30T04:52:20.525Z,99849.56
2022-09-30T04:54:25.861Z,99851.12
2022-09-30T04:56:30.980Z,99854.47
2022-09-30T04:58:38.533Z,99855.06
2022-09-30T05:00:43.940Z,99858.18
2022-09-30T05:02:49.568Z,99852.91
2022-09-30T05:04:54.759Z,99850.7
2022-09-30T05:07:00.427Z,99846.49
2022-09-30T05:09:06.918Z,99842.02
2022-09-30T05:11:13.189Z,99835.56
2022-09-30T05:13:19.255Z,99839.16
2022-09-30T05:15:25.081Z,99844.27
2022-09-30T05:17:31.184Z,99849.25
2022-09-30T05:19:36.760Z,99849.34
2022-09-30T05:21:42.106Z,99848.52
2022-09-30T05:23:47.837Z,99847.94
2022-09-30T05:25:53.679Z,99853.03
2022-09-30T05:28:00.123Z,99857.06
2022-09-30T05:30:05.469Z,99856.55
2022-09-30T05:32:14.317Z,99856.89
2022-09-30T05:34:20.421Z,99859.19
2022-09-30T05:36:26.379Z,99852.61
2022-09-30T05:38:32.365Z,99852.81
2022-09-30T05:40:38.587Z,99855.34
2022-09-30T05:42:44.964Z,99857.34
2022-09-30T05:44:51.401Z,99862.7
2022-09-30T05:47:04.208Z,99864.9
2022-09-30T05:49:11.032Z,99859.52
2022-09-30T05:51:17.500Z,99866.91
2022-09-30T05:53:23.580Z,99871.62
2022-09-30T05:55:29.891Z,99867.64
2022-09-30T05:57:42.867Z,99871.8
2022-09-30T05:59:49.240Z,99876.31
2022-09-30T06:01:55.749Z,99885.05
2022-09-30T06:04:02.456Z,99886.64
2022-09-30T06:06:08.536Z,99892.41
2022-09-30T06:08:15.240Z,99892.59
2022-09-30T06:10:21.463Z,99887.97
2022-09-30T06:12:27.812Z,99889.17
2022-09-30T06:14:33.902Z,99888.59
2022-09-30T06:16:40.617Z,99893.55
2022-09-30T06:18:46.521Z,99898.56
2022-09-30T06:20:51.897Z,99905.61
2022-09-30T06:22:58.405Z,99908.66
2022-09-30T06:25:04.419Z,99906.8
2022-09-30T06:27:10.735Z,99909.11
2022-09-30T06:29:16.943Z,99905.84
2022-09-30T06:31:23.506Z,99906.48
2022-09-30T06:33:29.455Z,99905.56
2022-09-30T06:35:35.718Z,99911.02
2022-09-30T06:37:42.026Z,99916.56
2022-09-30T06:39:48.290Z,99917.88
2022-09-30T06:41:54.088Z,99920.18
2022-09-30T06:44:11.677Z,99909.94
2022-09-30T06:46:30.828Z,99904.18
2022-09-30T06:48:40.369Z,99908.97
2022-09-30T06:51:02.380Z,99910.53
2022-09-30T06:53:08.928Z,99908.08
2022-09-30T06:55:14.942Z,99908.33
2022-09-30T06:57:21.030Z,99904.7
2022-09-30T06:59:41.165Z,99904.66
2022-09-30T07:01:46.822Z,99911.16
2022-09-30T07:03:56.208Z,99915.41
2022-09-30T07:06:03.075Z,99918.1
2022-09-30T07:08:10.400Z,99915
2022-09-30T07:10:16.135Z,99912.77
2022-09-30T07:12:21.862Z,99915.28
2022-09-30T07:14:27.188Z,99920.28
2022-09-30T07:16:32.726Z,99918.36
2022-09-30T07:18:38.508Z,99920.32
2022-09-30T07:21:06.248Z,99922.44
2022-09-30T07:23:15.659Z,99921.7
2022-09-30T07:25:23.935Z,99925.34
2022-09-30T07:27:29.811Z,99920.13
2022-09-30T07:32:32.342Z,99923.52
2022-09-30T07:34:39.930Z,99923.38
2022-09-30T07:36:46.296Z,99932.25
2022-09-30T07:38:52.456Z,99933.38
2022-09-30T07:40:58.842Z,99934.41
2022-09-30T07:43:05.174Z,99932.3
2022-09-30T07:45:11.088Z,99935.28
2022-09-30T07:47:16.584Z,99936.52
2022-09-30T07:49:22.712Z,99940.73
2022-09-30T07:51:29.547Z,99942.83
2022-09-30T07:53:35.816Z,99943.58
2022-09-30T07:55:42.426Z,99951.17
2022-09-30T07:57:48.679Z,99951.63
2022-09-30T07:59:54.614Z,99953.32
2022-09-30T08:02:01.053Z,99950.16
2022-09-30T08:04:07.603Z,99955.67
2022-09-30T08:06:13.291Z,99949.05
2022-09-30T08:08:28.455Z,99957.88
2022-09-30T08:10:34.869Z,99956
2022-09-30T08:12:41.136Z,99954.55
2022-09-30T08:14:47.167Z,99953.56
2022-09-30T08:16:53.097Z,99955.59
2022-09-30T08:18:58.702Z,99961.13
2022-09-30T08:21:04.297Z,99962.44
2022-09-30T08:23:11.025Z,99960.95
2022-09-30T08:25:17.448Z,99962.72
2022-09-30T08:27:23.678Z,99966.63
2022-09-30T08:30:03.718Z,99967.89
2022-09-30T08:32:13.316Z,99966.86
2022-09-30T08:34:19.678Z,99969.47
2022-09-30T08:36:25.999Z,99970.97
2022-09-30T08:38:32.077Z,99972.27
2022-09-30T08:40:38.260Z,99976.9
2022-09-30T08:42:56.816Z,99976.73
2022-09-30T08:45:03.796Z,99980.07
2022-09-30T08:47:09.811Z,99977.16
2022-09-30T08:49:15.869Z,99977.34
2022-09-30T08:51:21.875Z,99980.93
2022-09-30T08:53:32.710Z,99974.88
2022-09-30T08:55:41.558Z,99976.34
2022-09-30T08:57:49.112Z,99974.39
2022-09-30T08:59:55.178Z,99980.47
2022-09-30T09:02:01.910Z,99982.3
2022-09-30T09:04:09.036Z,99986.89
2022-09-30T09:06:16.673Z,99983.02
2022-09-30T09:08:22.759Z,99987.44
2022-09-30T09:10:28.922Z,99986.38
2022-09-30T09:12:34.875Z,99980.95
2022-09-30T09:14:40.834Z,99981.39
2022-09-30T09:16:53.816Z,99978.39
2022-09-30T09:18:59.539Z,99975.47
2022-09-30T09:21:05.749Z,99980.94
2022-09-30T09:23:11.276Z,99983.08
2022-09-30T09:25:16.800Z,99981.59
2022-09-30T09:27:22.653Z,99982.96
2022-09-30T09:29:28.908Z,99979.29
2022-09-30T09:31:35.354Z,99982.28
2022-09-30T09:33:41.030Z,99976.45
2022-09-30T09:35:46.810Z,99976
2022-09-30T09:37:52.688Z,99971.83
2022-09-30T09:40:05.310Z,99973.63
2022-09-30T09:42:11.059Z,99974.83
2022-09-30T09:44:16.832Z,99977.7
2022-09-30T09:46:22.833Z,99973.34
2022-09-30T09:48:28.996Z,99973.53
2022-09-30T09:50:35.596Z,99971.39
2022-09-30T09:52:41.746Z,99967.02
2022-09-30T09:54:47.214Z,99963.95
2022-09-30T09:56:52.682Z,99966.79
2022-09-30T09:58:58.466Z,99965.67
2022-09-30T10:01:10.463Z,99966.27
2022-09-30T10:03:16.996Z,99962.77
2022-09-30T10:05:24.287Z,99959.92
2022-09-30T10:07:30.166Z,99959.08
2022-09-30T10:09:36.455Z,99954.58
2022-09-30T10:11:42.866Z,99957.55
2022-09-30T10:13:48.988Z,99956.03
2022-09-30T10:15:55.091Z,99955.38
2022-09-30T10:18:01.238Z,99958.05
2022-09-30T10:20:10.270Z,99962.86
2022-09-30T10:22:16.531Z,99964.24
2022-09-30T10:24:23.063Z,99965.61
2022-09-30T10:26:29.970Z,99970.42
2022-09-30T10:28:36.548Z,99970.91
2022-09-30T10:30:43.416Z,99964.42
2022-09-30T10:32:49.207Z,99964.78
2022-09-30T10:34:55.011Z,99968.73
2022-09-30T10:37:00.896Z,99969.95
2022-09-30T10:39:08.963Z,99968.36
2022-09-30T10:41:15.850Z,99971.97
2022-09-30T10:43:22.177Z,99971.2
2022-09-30T10:45:29.812Z,99971.23
2022-09-30T10:47:38.846Z,99970.08
2022-09-30T10:49:45.288Z,99970.84
2022-09-30T10:51:51.122Z,99971.24
2022-09-30T10:53:59.964Z,99976.68
2022-09-30T10:56:07.178Z,99974.31
2022-09-30T10:58:13.307Z,99979.56
2022-09-30T11:00:19.403Z,99980.72
2022-09-30T11:02:25.283Z,99979.02
2022-09-30T11:04:31.588Z,99978.04
2022-09-30T11:06:38.341Z,99976.34
2022-09-30T11:08:44.654Z,99973.3
2022-09-30T11:10:52.050Z,99979.66
2022-09-30T11:12:57.938Z,99976.41
2022-09-30T11:15:06.830Z,99981.75
2022-09-30T11:17:15.229Z,99979.08
2022-09-30T11:19:27.517Z,99980.84
2022-09-30T11:21:33.872Z,99977.59
2022-09-30T11:23:39.868Z,99984.47
2022-09-30T11:25:46.389Z,99985.53
2022-09-30T11:27:52.257Z,99985.02
2022-09-30T11:29:58.685Z,99985.73
2022-09-30T11:32:05.198Z,99987.22
2022-09-30T11:34:11.466Z,99985.06
2022-09-30T11:36:17.667Z,99984.41
2022-09-30T11:38:24.047Z,99984.53
2022-09-30T11:40:30.234Z,99987.51
2022-09-30T11:42:39.725Z,99985.65
2022-09-30T11:44:46.036Z,99985.84
2022-09-30T11:46:52.228Z,99986.48
2022-09-30T11:48:58.478Z,99987.27
2022-09-30T11:51:04.997Z,99985.88
2022-09-30T11:53:11.358Z,99989.16
2022-09-30T11:55:18.832Z,99987.42
2022-09-30T11:57:25.319Z,99988.2
2022-09-30T11:59:31.471Z,99990.7
2022-09-30T12:01:37.877Z,99993.67
2022-09-30T12:03:44.425Z,99988.22
2022-09-30T12:05:50.401Z,99987.27
2022-09-30T12:07:59.235Z,99992.46
2022-09-30T12:10:05.181Z,99991.94
2022-09-30T12:12:17.520Z,99993.05
2022-09-30T12:14:23.737Z,99991.95
2022-09-30T12:16:30.673Z,99994.87
2022-09-30T12:18:38.308Z,99995.23
2022-09-30T12:20:44.476Z,99990.2
2022-09-30T12:22:50.708Z,99987.97
2022-09-30T12:24:57.027Z,99987.98
2022-09-30T12:27:03.487Z,99987.69
2022-09-30T12:29:09.889Z,99992.77
2022-09-30T12:31:16.050Z,99995.63
2022-09-30T12:33:22.653Z,99992.08
2022-09-30T12:35:28.834Z,99988.92
2022-09-30T12:37:34.967Z,99990.02
2022-09-30T12:39:41.281Z,99988.76
2022-09-30T12:41:47.427Z,99987.75
2022-09-30T12:43:53.766Z,99989.12
2022-09-30T12:46:01.414Z,99982.41
2022-09-30T12:48:08.024Z,99982.53
2022-09-30T12:50:21.376Z,99986.88
2022-09-30T12:52:29.547Z,99988.39
2022-09-30T12:54:35.436Z,99982.38
2022-09-30T12:56:49.262Z,99987.27
2022-09-30T12:58:55.786Z,99989.73
2022-09-30T13:01:02.654Z,99987.91
2022-09-30T13:03:10.548Z,99987.03
2022-09-30T13:05:16.972Z,99985.45
2022-09-30T13:07:23.415Z,99982.78
2022-09-30T13:09:29.956Z,99982.05
2022-09-30T13:11:36.247Z,99978.78
2022-09-30T13:13:45.666Z,99978.91
2022-09-30T13:15:51.910Z,99977.31
2022-09-30T13:17:58.184Z,99976.64
2022-09-30T13:20:04.328Z,99979.33
2022-09-30T13:22:11.797Z,99976.66
2022-09-30T13:24:18.064Z,99984.14
2022-09-30T13:26:25.079Z,99981.19
2022-09-30T13:28:32.155Z,99976.08
2022-09-30T13:30:38.349Z,99976.13
2022-09-30T13:32:44.816Z,99973.53
2022-09-30T13:34:51.517Z,99975.75
2022-09-30T13:36:58.357Z,99981.25
2022-09-30T13:39:04.866Z,99975.98
2022-09-30T13:41:11.582Z,99972.75
2022-09-30T13:43:18.449Z,99975.98
2022-09-30T13:45:25.038Z,99974.41
2022-09-30T13:47:31.873Z,99972.28
2022-09-30T13:49:38.135Z,99969.66
2022-09-30T13:51:46.514Z,99971.44
2022-09-30T13:53:56.114Z,99963.38
2022-09-30T13:56:02.595Z,99968.38
2022-09-30T13:58:09.096Z,99965.16
2022-09-30T14:00:16.007Z,99967.99
2022-09-30T14:02:24.268Z,99965.41
2022-09-30T14:04:30.857Z,99966.38
2022-09-30T14:06:37.113Z,99965.11
2022-09-30T14:08:43.101Z,99965.59
2022-09-30T14:10:49.871Z,99964.84
2022-09-30T14:12:56.142Z,99971.15
2022-09-30T14:15:02.907Z,99964.71
2022-09-30T14:17:10.099Z,99967.7
2022-09-30T14:19:16.468Z,99970.63
2022-09-30T14:21:22.957Z,99971.95
2022-09-30T14:23:30.123Z,99968.17
2022-09-30T14:25:36.515Z,99973.08
2022-09-30T14:27:42.888Z,99982.02
2022-09-30T14:29:49.349Z,99981.27
2022-09-30T14:31:55.820Z,99987.08
2022-09-30T14:34:02.359Z,99984.93
2022-09-30T14:36:08.666Z,99984.2
2022-09-30T14:38:14.987Z,99985.59
2022-09-30T14:40:21.803Z,99982.08
2022-09-30T14:42:28.054Z,99981.23
2022-09-30T14:44:34.104Z,99983.17
2022-09-30T14:46:40.444Z,99984.72
2022-09-30T14:48:46.691Z,99985.53
2022-09-30T14:50:54.893Z,99988.78
2022-09-30T14:53:01.358Z,99989.25
2022-09-30T14:55:07.630Z,99992
2022-09-30T14:57:14.185Z,99991.94
2022-09-30T14:59:20.503Z,99994.33
2022-09-30T15:01:27.328Z,99990.55
2022-09-30T15:03:33.604Z,99991.77
2022-09-30T15:05:39.898Z,99990.11
2022-09-30T15:07:46.344Z,99998.38
2022-09-30T15:09:53.067Z,99997.78
2022-09-30T15:11:59.426Z,99993.55
2022-09-30T15:14:05.687Z,99996.05
2022-09-30T15:16:12.118Z,99997.49
2022-09-30T15:18:18.921Z,99998.31
2022-09-30T15:20:25.136Z,100000.67
2022-09-30T15:22:31.777Z,100002.41
2022-09-30T15:24:38.190Z,99996.95
2022-09-30T15:26:44.528Z,99995.53
2022-09-30T15:28:51.252Z,99994.56
2022-09-30T15:31:00.578Z,99992.31
2022-09-30T15:33:06.983Z,99992.05
2022-09-30T15:35:14.504Z,99991.48
2022-09-30T15:37:20.758Z,99990.28
2022-09-30T15:39:27.378Z,99991.26
2022-09-30T15:41:33.746Z,99997.84
2022-09-30T15:43:42.525Z,100000.05
2022-09-30T15:45:49.088Z,100001.34
2022-09-30T15:47:55.890Z,100006.91
2022-09-30T15:50:03.814Z,100001.52
2022-09-30T15:52:15.939Z,100001.47
2022-09-30T15:54:29.841Z,100004.33
2022-09-30T15:56:40.843Z,100003.45
2022-09-30T15:58:47.170Z,100007.98
2022-09-30T16:00:53.846Z,100007.39
2022-09-30T16:03:00.625Z,100008.27
2022-09-30T16:05:07.315Z,100003.45
2022-09-30T16:07:14.059Z,100009.04
2022-09-30T16:09:23.313Z,100009.1
2022-09-30T16:11:30.080Z,100008.77
2022-09-30T16:13:46.586Z,100013.7
2022-09-30T16:15:58.113Z,100017.86
2022-09-30T16:18:05.427Z,100022.73
2022-09-30T16:20:12.588Z,100023.97
2022-09-30T16:22:22.632Z,100031.02
2022-09-30T16:24:34.525Z,100033.08
2022-09-30T16:26:49.892Z,100034.25
2022-09-30T16:28:58.364Z,100034.96
2022-09-30T16:31:05.301Z,100041.27
2022-09-30T16:33:13.563Z,100046.59
2022-09-30T16:35:21.886Z,100048.38
2022-09-30T16:37:37.914Z,100049.97
2022-09-30T16:39:46.814Z,100059.14
2022-09-30T16:41:57.963Z,100058.72
2022-09-30T16:44:07.501Z,100064.46
2022-09-30T16:46:28.074Z,100064.59
2022-09-30T16:48:38.865Z,100064.22
2022-09-30T16:50:51.025Z,100070.92
2022-09-30T16:52:59.926Z,100072.34
2022-09-30T16:55:06.556Z,100069.36
2022-09-30T16:57:16.857Z,100068.13
2022-09-30T16:59:23.787Z,100072.42
2022-09-30T17:01:30.454Z,100075
2022-09-30T17:03:36.788Z,100076.2
2022-09-30T17:05:44.854Z,100076.88
2022-09-30T17:07:57.886Z,100069.92
2022-09-30T17:10:04.922Z,100069.41
2022-09-30T17:12:11.623Z,100073.23
2022-09-30T17:14:18.664Z,100070.16
2022-09-30T17:16:25.417Z,100070.73
2022-09-30T17:18:32.367Z,100076.14
2022-09-30T17:20:49.231Z,100081.11
2022-09-30T17:22:57.106Z,100088.33
2022-09-30T17:25:11.996Z,100091.81
2022-09-30T17:27:18.386Z,100090.64
2022-09-30T17:29:37.105Z,100087.44
2022-09-30T17:31:47.922Z,100091.23
2022-09-30T17:33:56.231Z,100087.44
2022-09-30T17:36:03.852Z,100085.22
2022-09-30T17:38:10.416Z,100087.83
2022-09-30T17:40:17.174Z,100092.56
2022-09-30T17:42:24.051Z,100089.66
2022-09-30T17:44:33.479Z,100090.01
2022-09-30T17:46:41.072Z,100097.13
2022-09-30T17:48:48.406Z,100104.64
2022-09-30T17:50:55.397Z,100104.97
2022-09-30T17:53:03.885Z,100101.5
2022-09-30T17:55:12.280Z,100102.17
2022-09-30T17:57:20.147Z,100101.09
2022-09-30T17:59:29.770Z,100104.73
2022-09-30T18:01:39.481Z,100107.81
2022-09-30T18:03:50.873Z,100102.82
2022-09-30T18:05:57.680Z,100101.41
2022-09-30T18:08:04.517Z,100098.86
2022-09-30T18:10:13.752Z,100098.72
2022-09-30T18:12:20.346Z,100093.66
2022-09-30T18:14:27.150Z,100094.22
2022-09-30T18:16:33.986Z,100092.83
2022-09-30T18:18:41.438Z,100094.24
2022-09-30T18:20:48.351Z,100090.45
2022-09-30T18:22:55.190Z,100089.73
2022-09-30T18:25:15.535Z,100092.46
2022-09-30T18:27:23.123Z,100094.64
2022-09-30T18:29:30.114Z,100095.13
2022-09-30T18:31:39.045Z,100094.68
2022-09-30T18:33:53.268Z,100092.28
2022-09-30T18:36:00.748Z,100085.75
2022-09-30T18:38:09.153Z,100086.63
2022-09-30T18:40:16.715Z,100082.65
2022-09-30T18:42:23.556Z,100082.47
2022-09-30T18:44:30.031Z,100084.98
2022-09-30T18:46:36.195Z,100089.58
2022-09-30T18:48:42.581Z,100090.81
2022-09-30T18:50:49.193Z,100091.64
2022-09-30T18:52:56.253Z,100087.16
2022-09-30T18:55:03.174Z,100082.35
2022-09-30T18:57:10.271Z,100083.19
2022-09-30T18:59:24.085Z,100086.44
2022-09-30T19:01:33.456Z,100087.49
2022-09-30T19:03:43.923Z,100087.29
2022-09-30T19:05:55.628Z,100089.05
2022-09-30T19:08:03.021Z,100080.97
2022-09-30T19:10:10.143Z,100080.53
2022-09-30T19:12:16.829Z,100086.25
2022-09-30T19:14:24.200Z,100097.42
2022-09-30T19:16:35.413Z,100091.96
2022-09-30T19:18:44.942Z,100093.03
2022-09-30T19:20:53.264Z,100097.66
2022-09-30T19:23:00.810Z,100098.33
2022-09-30T19:25:07.567Z,100100.63
2022-09-30T19:27:14.341Z,100103.8
2022-09-30T19:29:21.597Z,100104.22
2022-09-30T19:31:28.731Z,100110.75
2022-09-30T19:33:57.329Z,100106.39
2022-09-30T19:36:15.925Z,100104.15
2022-09-30T19:38:37.846Z,100102.33
2022-09-30T19:40:45.392Z,100102
2022-09-30T19:42:54.357Z,100099.6
2022-09-30T19:45:08.852Z,100100.8
2022-09-30T19:47:15.642Z,100098.71
2022-09-30T19:49:34.137Z,100097.32
2022-09-30T19:51:46.146Z,100088.2
2022-09-30T19:54:07.380Z,100093.66
2022-09-30T19:56:14.217Z,100102.12
2022-09-30T19:58:22.453Z,100102.67
2022-09-30T20:00:32.946Z,100109.38
2022-09-30T20:02:43.507Z,100106.6
2022-09-30T20:04:51.574Z,100108.19
2022-09-30T20:07:19.266Z,100108.04
2022-09-30T20:09:26.969Z,100109.23
2022-09-30T20:11:39.654Z,100111.13
2022-09-30T20:13:46.474Z,100103.99
2022-09-30T20:15:52.946Z,100101.59
2022-09-30T20:17:59.790Z,100100.64
2022-09-30T20:20:06.903Z,100101.73
2022-09-30T20:22:14.583Z,100108.17
2022-09-30T20:24:21.122Z,100107.2
2022-09-30T20:26:28.386Z,100105.1
2022-09-30T20:28:35.422Z,100103.13
2022-09-30T20:30:44.336Z,100095.88
2022-09-30T20:32:50.965Z,100086.97
2022-09-30T20:35:00.446Z,100087.38
2022-09-30T20:37:09.262Z,100092.53
2022-09-30T20:39:15.706Z,100098.33
2022-09-30T20:41:22.095Z,100100.66
2022-09-30T20:43:28.273Z,100100.06
2022-09-30T20:45:39.772Z,100099.66
2022-09-30T20:47:46.148Z,100102.45
2022-09-30T20:49:52.492Z,100101.96
2022-09-30T20:51:58.521Z,100100.45
2022-09-30T20:54:04.760Z,100096.25
2022-09-30T20:56:11.713Z,100087.83
2022-09-30T20:58:17.670Z,100087.23
2022-09-30T21:00:24.471Z,100086.48
2022-09-30T21:02:31.099Z,100084.67
2022-09-30T21:04:37.326Z,100081.22
2022-09-30T21:06:43.413Z,100086.33
2022-09-30T21:08:50.627Z,100087.06
2022-09-30T21:10:57.167Z,100085.34
2022-09-30T21:13:02.957Z,100083.92
2022-09-30T21:15:08.682Z,100082.36
2022-09-30T21:17:14.842Z,100082.69
2022-09-30T21:19:21.072Z,100082.63
2022-09-30T21:21:28.588Z,100079.31
2022-09-30T21:23:39.358Z,100080.77
2022-09-30T21:25:45.954Z,100084.13
2022-09-30T21:27:52.364Z,100084.03
2022-09-30T21:29:58.867Z,100089.48
2022-09-30T21:32:05.467Z,100090.37
2022-09-30T21:34:12.256Z,100084.58
2022-09-30T21:36:18.461Z,100079.05
2022-09-30T21:38:24.419Z,100078.67
2022-09-30T21:40:30.316Z,100072.78
2022-09-30T21:42:36.565Z,100069.25
2022-09-30T21:44:42.735Z,100068.27
2022-09-30T21:46:50.492Z,100070.87
2022-09-30T21:48:56.837Z,100077.59
2022-09-30T21:51:03.108Z,100082.05
2022-09-30T21:53:09.603Z,100083.61
2022-09-30T21:55:15.895Z,100086.83
2022-09-30T21:57:22.316Z,100084.33
2022-09-30T21:59:28.306Z,100087.2
2022-09-30T22:01:35.549Z,100085.88
2022-09-30T22:03:42.504Z,100084.57
2022-09-30T22:05:48.184Z,100083.41
2022-09-30T22:07:54.064Z,100081.94
2022-09-30T22:10:00.052Z,100081.36
2022-09-30T22:12:05.576Z,100078.44
2022-09-30T22:14:11.808Z,100077.36
2022-09-30T22:16:17.894Z,100074.8
2022-09-30T22:18:25.134Z,100074.56
2022-09-30T22:20:34.255Z,100072.88
2022-09-30T22:22:39.969Z,100075.08
2022-09-30T22:24:47.029Z,100072.76
2022-09-30T22:26:53.054Z,100080.07
2022-09-30T22:28:58.999Z,100081.98
2022-09-30T22:31:05.160Z,100082.63
2022-09-30T22:33:14.320Z,100073.6
2022-09-30T22:35:20.183Z,100072.77
2022-09-30T22:37:26.096Z,100072.66
2022-09-30T22:39:32.190Z,100080.61
2022-09-30T22:41:38.162Z,100083.34
2022-09-30T22:43:44.222Z,100087.21
2022-09-30T22:45:50.053Z,100087.98
2022-09-30T22:47:55.909Z,100086.81
2022-09-30T22:50:01.416Z,100088.86
2022-09-30T22:52:07.283Z,100084.33
2022-09-30T22:54:13.043Z,100087.22
2022-09-30T22:56:18.716Z,100087.07
2022-09-30T22:58:24.084Z,100092.39
2022-09-30T23:00:29.918Z,100091.91
2022-09-30T23:02:35.671Z,100095.13
2022-09-30T23:04:41.446Z,100094.13
2022-09-30T23:06:47.404Z,100094.78
2022-09-30T23:08:52.993Z,100095.88
2022-09-30T23:10:58.711Z,100096.77
2022-09-30T23:13:04.675Z,100089.84
2022-09-30T23:15:10.383Z,100082.06
2022-09-30T23:17:16.092Z,100076.47
2022-09-30T23:19:21.585Z,100076.02
2022-09-30T23:21:27.089Z,100078.11
2022-09-30T23:23:33.015Z,100069.86
2022-09-30T23:25:38.688Z,100074.95
2022-09-30T23:27:44.589Z,100070.81
2022-09-30T23:29:50.762Z,100069.77
2022-09-30T23:31:56.743Z,100069.88
2022-09-30T23:34:02.376Z,100071.38
2022-09-30T23:36:07.925Z,100067.73
2022-09-30T23:38:14.802Z,100068.06
2022-09-30T23:40:20.336Z,100067.47
2022-09-30T23:42:26.063Z,100067.56
2022-09-30T23:44:31.855Z,100063.39
2022-09-30T23:46:37.423Z,100059.51
2022-09-30T23:48:42.918Z,100058.86
2022-09-30T23:50:48.579Z,100058.2
2022-09-30T23:52:53.895Z,100060.7
2022-09-30T23:54:59.282Z,100065.81
2022-09-30T23:57:06.029Z,100072.37
2022-09-30T23:59:11.660Z,100071.19
